Time;durP1;ratioP1;P1;durP2;ratioP2;P2;SDS_P1;SDS_P2;PMS_P1;PMS_P2;Temp;Humidity;BMP_temperature;BMP_pressure;BME280_temperature;BME280_humidity;BME280_pressure;Samples;Min_cycle;Max_cycle;Signal;HPM_P1;HPM_P2
2022/11/08 00:01:33;;;;;;;11.32;4.63;;;12.40;81.70;;;;;;4164109;28;20033;-83
2022/11/08 00:03:34;;;;;;;;;;;12.50;81.70;;;;;;4165873;28;20037;-83
2022/11/08 00:14:52;;;;;;;11.45;4.50;;;12.50;81.70;;;;;;4167816;28;20032;-83
2022/11/08 00:16:53;;;;;;;11.80;4.97;;;12.60;81.80;;;;;;4162498;28;20021;-82
2022/11/08 00:18:54;;;;;;;9.52;4.22;;;12.50;81.80;;;;;;4176870;28;20150;-83
2022/11/08 00:20:54;;;;;;;12.57;4.55;;;12.60;81.90;;;;;;4159928;28;20574;-83
2022/11/08 00:22:55;;;;;;;15.55;5.07;;;12.50;81.90;;;;;;4161122;28;20463;-83
2022/11/08 00:24:56;;;;;;;13.05;4.80;;;12.60;82.00;;;;;;4163251;28;20034;-83
2022/11/08 00:26:57;;;;;;;21.67;6.07;;;12.50;82.00;;;;;;4166813;28;20021;-83
2022/11/08 00:28:58;;;;;;;14.27;5.05;;;12.60;82.10;;;;;;4162215;28;20041;-83
2022/11/08 00:31:04;;;;;;;13.57;4.95;;;12.60;82.00;;;;;;4178328;28;20029;-83
2022/11/08 00:33:04;;;;;;;11.88;5.00;;;12.50;82.00;;;;;;4164599;28;20018;-83
2022/11/08 00:35:06;;;;;;;11.85;4.88;;;12.50;81.90;;;;;;4162394;28;20072;-83
2022/11/08 00:37:07;;;;;;;12.88;5.28;;;12.50;81.90;;;;;;4163239;28;20021;-84
2022/11/08 00:39:09;;;;;;;16.67;5.45;;;12.60;82.00;;;;;;4165190;28;20102;-83
2022/11/08 00:41:10;;;;;;;17.67;5.50;;;12.50;82.00;;;;;;4165403;28;20041;-83
2022/11/08 00:43:11;;;;;;;15.27;6.25;;;12.60;81.90;;;;;;4162670;28;20068;-84
2022/11/08 00:45:11;;;;;;;11.95;5.50;;;12.50;81.90;;;;;;4163859;28;20041;-83
2022/11/08 00:47:12;;;;;;;17.20;5.55;;;12.60;81.90;;;;;;4165260;28;20033;-83
2022/11/08 00:49:13;;;;;;;17.00;5.68;;;12.50;81.90;;;;;;4165156;28;20026;-83
2022/11/08 00:51:14;;;;;;;18.98;5.72;;;12.70;82.10;;;;;;4163785;28;20479;-83
2022/11/08 00:53:14;;;;;;;16.00;5.82;;;12.60;81.90;;;;;;4163418;28;20022;-83
2022/11/08 00:55:15;;;;;;;19.55;5.88;;;12.50;81.90;;;;;;4164238;28;20507;-82
2022/11/08 00:57:15;;;;;;;19.77;6.10;;;12.50;81.90;;;;;;4164791;28;20576;-83
2022/11/08 00:59:18;;;;;;;18.98;6.03;;;12.60;81.90;;;;;;4160991;28;20033;-83
2022/11/08 01:01:20;;;;;;;21.52;5.95;;;12.50;81.80;;;;;;4166765;28;20055;-83
2022/11/08 01:03:22;;;;;;;21.10;6.00;;;12.70;81.80;;;;;;4159142;28;20411;-82
2022/11/08 01:05:23;;;;;;;22.07;6.10;;;12.70;81.90;;;;;;4167625;28;20041;-83
2022/11/08 01:07:24;;;;;;;20.67;5.78;;;12.50;81.80;;;;;;4163808;28;20553;-82
2022/11/08 01:09:24;;;;;;;19.13;5.47;;;12.60;81.80;;;;;;4162552;28;20034;-83
2022/11/08 01:11:25;;;;;;;22.95;6.03;;;12.60;81.80;;;;;;4164615;28;20059;-83
2022/11/08 01:13:26;;;;;;;26.75;6.05;;;12.60;81.80;;;;;;4164977;28;20024;-83
2022/11/08 01:15:27;;;;;;;20.48;5.18;;;12.50;81.80;;;;;;4162490;28;20494;-84
2022/11/08 01:17:28;;;;;;;25.23;6.13;;;12.50;81.80;;;;;;4163354;28;20064;-84
2022/11/08 01:19:28;;;;;;;18.83;5.65;;;12.50;81.80;;;;;;4158142;28;20459;-83
2022/11/08 01:21:29;;;;;;;24.35;5.30;;;12.60;81.90;;;;;;4161155;28;20526;-83
2022/11/08 01:23:30;;;;;;;25.60;5.57;;;12.70;81.90;;;;;;4163217;28;20026;-82
2022/11/08 01:25:34;;;;;;;17.42;5.32;;;12.60;81.80;;;;;;4163494;28;20493;-83
2022/11/08 01:27:35;;;;;;;16.30;4.30;;;12.50;81.80;;;;;;4162103;28;20030;-83
2022/11/08 01:29:35;;;;;;;20.42;4.75;;;12.60;81.80;;;;;;4160267;28;20477;-83
2022/11/08 01:31:36;;;;;;;18.58;5.18;;;12.60;81.70;;;;;;4153410;28;20090;-83
2022/11/08 01:33:37;;;;;;;17.38;4.10;;;12.60;81.80;;;;;;4146921;28;20575;-83
2022/11/08 01:35:38;;;;;;;19.52;4.90;;;12.60;81.70;;;;;;4164662;28;20072;-82
2022/11/08 01:37:39;;;;;;;17.77;3.88;;;12.60;81.70;;;;;;4165170;28;20089;-83
2022/11/08 01:39:39;;;;;;;15.07;4.00;;;12.70;81.80;;;;;;4163197;28;20045;-83
2022/11/08 01:41:40;;;;;;;20.30;4.03;;;12.70;81.80;;;;;;4165682;28;20503;-84
2022/11/08 01:44:01;;;;;;;13.65;3.55;;;12.70;81.80;;;;;;4164088;28;20033;-83
2022/11/08 01:46:26;;;;;;;17.30;3.67;;;12.70;81.70;;;;;;4165541;28;20314;-83
2022/11/08 01:48:28;;;;;;;14.90;4.22;;;12.60;81.70;;;;;;4157312;28;20032;-84
2022/11/08 01:50:29;;;;;;;16.00;3.03;;;12.70;81.70;;;;;;4159844;28;20415;-84
2022/11/08 01:52:36;;;;;;;16.02;3.83;;;12.60;81.60;;;;;;4163801;28;20030;-86
2022/11/08 01:55:03;;;;;;;12.35;3.60;;;12.70;81.70;;;;;;4164328;28;20044;-83
2022/11/08 01:57:07;;;;;;;21.00;3.10;;;12.60;81.60;;;;;;4163762;28;20033;-83
2022/11/08 01:59:10;;;;;;;15.85;3.22;;;12.60;81.40;;;;;;4163179;28;20033;-83
2022/11/08 02:01:12;;;;;;;18.83;3.70;;;12.60;81.40;;;;;;4148280;28;20523;-82
2022/11/08 02:03:16;;;;;;;18.13;3.75;;;12.60;81.40;;;;;;4166024;28;20507;-83
2022/11/08 02:05:24;;;;;;;15.18;2.92;;;12.60;81.40;;;;;;4148402;28;20036;-83
2022/11/08 02:07:29;;;;;;;16.92;2.65;;;12.70;81.50;;;;;;4163015;28;20033;-83
2022/11/08 02:09:31;;;;;;;17.23;3.17;;;12.60;81.40;;;;;;4165574;28;20049;-83
2022/11/08 02:11:33;;;;;;;13.93;3.10;;;12.70;81.50;;;;;;4165509;28;20113;-84
2022/11/08 02:13:36;;;;;;;19.17;3.08;;;12.60;81.40;;;;;;4162220;28;20033;-83
2022/11/08 02:15:37;;;;;;;12.93;2.72;;;12.60;81.30;;;;;;4164469;28;20029;-84
2022/11/08 02:17:38;;;;;;;14.98;2.72;;;12.60;81.40;;;;;;4165955;28;20029;-84
2022/11/08 02:19:45;;;;;;;11.35;3.20;;;12.70;81.30;;;;;;4160995;28;20535;-83
2022/11/08 02:22:00;;;;;;;18.13;2.60;;;12.60;81.30;;;;;;4167521;28;20037;-83
2022/11/08 02:24:06;;;;;;;15.18;2.83;;;12.70;81.20;;;;;;4163292;28;20088;-83
2022/11/08 02:26:07;;;;;;;15.50;2.88;;;12.60;81.20;;;;;;4167121;28;20033;-84
2022/11/08 02:28:08;;;;;;;18.05;3.15;;;12.70;81.20;;;;;;4163472;28;20151;-83
2022/11/08 02:30:09;;;;;;;16.98;2.97;;;12.60;81.20;;;;;;4164152;28;20025;-85
2022/11/08 02:32:10;;;;;;;18.48;2.78;;;12.60;81.20;;;;;;4174709;28;20018;-84
2022/11/08 02:34:10;;;;;;;12.40;3.13;;;12.60;81.10;;;;;;4159420;28;20415;-84
2022/11/08 02:36:16;;;;;;;11.68;2.90;;;12.60;81.00;;;;;;4162557;28;20025;-83
2022/11/08 02:38:17;;;;;;;10.07;2.53;;;12.60;81.00;;;;;;4160969;28;20022;-83
2022/11/08 02:40:18;;;;;;;15.10;2.70;;;12.60;81.00;;;;;;4161361;28;20029;-84
2022/11/08 02:42:19;;;;;;;14.05;2.83;;;12.60;80.90;;;;;;4177420;28;20200;-83
2022/11/08 02:44:20;;;;;;;10.38;2.38;;;12.70;81.00;;;;;;4161779;28;20079;-84
2022/11/08 02:46:20;;;;;;;21.88;3.35;;;12.70;80.90;;;;;;4162547;28;20471;-85
2022/11/08 02:48:21;;;;;;;8.23;1.83;;;12.70;80.90;;;;;;4167762;28;20033;-83
2022/11/08 02:50:22;;;;;;;12.63;2.35;;;12.60;80.80;;;;;;4179129;28;21048;-83
2022/11/08 02:52:22;;;;;;;16.42;3.33;;;12.70;80.80;;;;;;4149467;28;20036;-83
2022/11/08 02:54:23;;;;;;;17.10;2.50;;;12.70;80.80;;;;;;4165155;28;20093;-83
2022/11/08 02:56:24;;;;;;;16.77;2.25;;;12.70;80.70;;;;;;4166597;28;20358;-83
2022/11/08 02:58:26;;;;;;;14.60;2.67;;;12.70;80.70;;;;;;4175538;28;20033;-84
2022/11/08 03:00:27;;;;;;;15.20;2.38;;;12.80;80.70;;;;;;4162263;28;20394;-84
2022/11/08 03:02:28;;;;;;;14.65;2.30;;;12.70;80.60;;;;;;4161251;28;20026;-84
2022/11/08 03:04:28;;;;;;;9.35;2.10;;;12.80;80.60;;;;;;4161008;28;20052;-82
2022/11/08 03:06:29;;;;;;;21.45;2.42;;;12.60;80.40;;;;;;4164871;28;20443;-84
2022/11/08 03:08:30;;;;;;;13.15;2.28;;;12.70;80.50;;;;;;4165720;28;20035;-84
2022/11/08 03:10:30;;;;;;;12.88;2.28;;;12.80;80.50;;;;;;4165126;28;20029;-84
2022/11/08 03:12:31;;;;;;;11.05;2.22;;;12.60;80.30;;;;;;4165333;28;20567;-84
2022/11/08 03:14:32;;;;;;;9.52;2.20;;;12.80;80.40;;;;;;4166599;28;20040;-83
2022/11/08 03:16:32;;;;;;;12.88;2.88;;;12.60;80.20;;;;;;4164139;28;20069;-82
2022/11/08 03:18:33;;;;;;;12.60;2.35;;;12.70;80.30;;;;;;4169111;28;20040;-82
2022/11/08 03:20:34;;;;;;;18.83;2.97;;;12.70;80.20;;;;;;4166008;28;20037;-84
2022/11/08 03:22:34;;;;;;;12.85;2.30;;;12.80;80.20;;;;;;4165923;28;20390;-84
2022/11/08 03:24:35;;;;;;;19.65;2.88;;;12.70;80.10;;;;;;4164612;28;20026;-83
2022/11/08 03:26:35;;;;;;;7.47;1.67;;;12.70;80.10;;;;;;4166119;28;20059;-84
2022/11/08 03:28:36;;;;;;;11.88;2.42;;;12.70;80.00;;;;;;4163664;28;20038;-82
2022/11/08 03:30:37;;;;;;;10.18;1.90;;;12.70;80.00;;;;;;4162483;28;20034;-84
2022/11/08 03:32:38;;;;;;;12.82;2.15;;;12.80;80.00;;;;;;4164947;28;20049;-83
2022/11/08 03:34:38;;;;;;;18.58;2.80;;;12.60;79.80;;;;;;4167274;28;21751;-83
2022/11/08 03:36:39;;;;;;;14.30;2.25;;;12.60;79.80;;;;;;4158029;28;20025;-84
2022/11/08 03:38:39;;;;;;;11.63;2.42;;;12.60;79.70;;;;;;4164783;28;20115;-84
2022/11/08 03:40:40;;;;;;;20.63;2.33;;;12.80;79.80;;;;;;4166768;28;20050;-83
2022/11/08 03:42:41;;;;;;;15.38;2.55;;;12.60;79.50;;;;;;4166396;28;20084;-83
2022/11/08 03:44:42;;;;;;;11.18;2.30;;;12.70;79.50;;;;;;4169532;28;20037;-83
2022/11/08 03:46:43;;;;;;;26.42;2.75;;;12.60;79.40;;;;;;4146953;28;20022;-83
2022/11/08 03:48:43;;;;;;;15.73;2.30;;;12.60;79.30;;;;;;4165792;28;20028;-83
2022/11/08 03:50:44;;;;;;;16.73;2.78;;;12.60;79.20;;;;;;4164629;28;20088;-86
2022/11/08 03:52:48;;;;;;;18.27;2.70;;;12.60;79.20;;;;;;4164971;28;20103;-84
2022/11/08 03:54:48;;;;;;;11.02;2.20;;;12.60;79.10;;;;;;4164894;28;20108;-84
2022/11/08 03:56:49;;;;;;;17.52;2.50;;;12.60;79.20;;;;;;4164767;28;20373;-83
2022/11/08 03:58:49;;;;;;;19.15;2.88;;;12.60;79.20;;;;;;4165768;28;20030;-83
2022/11/08 04:00:51;;;;;;;12.73;2.17;;;12.50;79.20;;;;;;4165191;28;20105;-83
2022/11/08 04:02:51;;;;;;;14.35;2.45;;;12.60;79.20;;;;;;4165978;28;20030;-83
2022/11/08 04:04:52;;;;;;;12.07;2.20;;;12.60;79.20;;;;;;4166997;28;20029;-84
2022/11/08 04:06:53;;;;;;;13.23;2.30;;;12.50;79.20;;;;;;4158157;28;20068;-83
2022/11/08 04:08:53;;;;;;;14.23;2.25;;;12.60;79.30;;;;;;4149519;28;20026;-84
2022/11/08 04:10:55;;;;;;;6.80;2.38;;;12.60;79.30;;;;;;4159375;28;20029;-83
2022/11/08 04:15:21;;;;;;;15.30;2.25;;;12.50;79.20;;;;;;4177006;28;20076;-84
2022/11/08 04:21:17;;;;;;;11.73;1.63;;;12.60;79.20;;;;;;4166504;28;20021;-83
2022/11/08 04:22:04;;;;;;;10.32;2.17;;;12.40;79.10;;;;;;4174223;28;20040;-83
2022/11/08 04:24:05;;;;;;;11.18;2.05;;;12.40;79.10;;;;;;4165364;28;20033;-84
2022/11/08 04:26:07;;;;;;;7.25;2.03;;;12.40;79.10;;;;;;4163537;28;20550;-83
2022/11/08 04:28:08;;;;;;;15.30;2.40;;;12.40;79.10;;;;;;4160379;28;20045;-84
2022/11/08 04:30:09;;;;;;;11.68;2.42;;;12.40;79.10;;;;;;4163030;28;20037;-85
2022/11/08 04:32:10;;;;;;;11.38;2.20;;;12.40;79.10;;;;;;4162474;28;20021;-84
2022/11/08 04:34:10;;;;;;;10.98;2.03;;;12.50;79.20;;;;;;4164167;28;20053;-83
2022/11/08 04:36:13;;;;;;;15.52;1.83;;;12.40;79.10;;;;;;4160596;28;20068;-84
2022/11/08 04:38:14;;;;;;;13.52;2.22;;;12.50;79.20;;;;;;4164081;28;20040;-83
2022/11/08 04:40:15;;;;;;;13.98;2.95;;;12.40;79.10;;;;;;4160132;28;20045;-84
2022/11/08 04:42:16;;;;;;;11.18;2.40;;;12.40;79.80;;;;;;4162992;28;20515;-84
2022/11/08 04:44:17;;;;;;;9.15;1.92;;;12.40;79.10;;;;;;4178411;28;20666;-84
2022/11/08 04:46:37;;;;;;;12.63;2.28;;;12.40;79.00;;;;;;4162016;28;20037;-83
2022/11/08 04:48:59;;;;;;;14.18;2.10;;;12.40;79.00;;;;;;4165298;28;20092;-83
2022/11/08 04:51:28;;;;;;;16.55;2.78;;;12.40;78.90;;;;;;4162894;28;20041;-83
2022/11/08 04:53:49;;;;;;;11.85;2.42;;;12.50;79.70;;;;;;4165166;28;20036;-83
2022/11/08 04:56:02;;;;;;;11.05;2.05;;;12.40;78.80;;;;;;4165021;28;20099;-84
2022/11/08 04:58:23;;;;;;;11.82;1.73;;;12.40;78.80;;;;;;4165249;28;20578;-83
2022/11/08 05:00:43;;;;;;;13.48;2.38;;;12.40;78.80;;;;;;4162614;28;20034;-83
2022/11/08 05:03:04;;;;;;;10.93;2.45;;;12.40;78.80;;;;;;4165664;28;20093;-83
2022/11/08 05:05:25;;;;;;;18.67;1.90;;;12.40;78.80;;;;;;4159829;28;20033;-83
2022/11/08 05:07:45;;;;;;;12.98;2.35;;;12.30;78.70;;;;;;4163244;28;20100;-83
2022/11/08 05:10:06;;;;;;;7.97;1.90;;;12.40;78.80;;;;;;4166122;28;20037;-83
2022/11/08 05:12:27;;;;;;;7.95;2.20;;;12.30;78.70;;;;;;4167848;28;20044;-82
2022/11/08 05:14:48;;;;;;;19.50;2.72;;;12.40;78.80;;;;;;4179446;28;20037;-83
2022/11/08 05:17:08;;;;;;;12.77;2.47;;;12.30;78.70;;;;;;4171095;28;20055;-83
2022/11/08 05:24:47;;;;;;;11.32;2.10;;;12.40;78.70;;;;;;4166832;28;20025;-84
2022/11/08 05:27:08;;;;;;;11.43;2.22;;;12.30;78.70;;;;;;4166473;28;20053;-83
2022/11/08 05:29:29;;;;;;;13.90;2.50;;;12.30;78.70;;;;;;4170412;28;20037;-84
2022/11/08 05:31:49;;;;;;;14.52;2.30;;;12.20;78.60;;;;;;4168646;28;20029;-84
2022/11/08 05:34:10;;;;;;;10.10;2.42;;;12.30;78.70;;;;;;4167909;28;20029;-83
2022/11/08 05:36:31;;;;;;;11.43;2.50;;;12.20;78.50;;;;;;4164999;28;20037;-85
2022/11/08 05:38:38;;;;;;;16.52;2.88;;;12.30;78.60;;;;;;4169034;28;20491;-85
2022/11/08 05:40:38;;;;;;;15.02;2.55;;;12.30;78.50;;;;;;4167375;28;20080;-85
2022/11/08 05:42:39;;;;;;;13.05;2.70;;;12.30;78.60;;;;;;4166343;28;20087;-85
2022/11/08 05:44:40;;;;;;;8.18;2.05;;;12.20;78.50;;;;;;4164984;28;20025;-85
2022/11/08 05:46:40;;;;;;;7.75;2.05;;;12.20;78.50;;;;;;4167787;28;20022;-85
2022/11/08 05:48:42;;;;;;;16.05;1.90;;;12.10;78.40;;;;;;4165502;28;20127;-85
2022/11/08 05:50:43;;;;;;;9.60;2.00;;;12.10;78.50;;;;;;4177837;28;20033;-86
2022/11/08 05:52:43;;;;;;;9.43;2.38;;;12.20;78.50;;;;;;4163871;28;20474;-84
2022/11/08 05:54:44;;;;;;;8.15;2.15;;;12.20;78.50;;;;;;4162974;28;20538;-84
2022/11/08 05:56:45;;;;;;;11.02;2.63;;;12.10;78.40;;;;;;4164549;28;20631;-85
2022/11/08 05:58:45;;;;;;;11.75;2.13;;;12.10;78.40;;;;;;4161470;28;20037;-85
2022/11/08 06:00:46;;;;;;;16.58;3.35;;;12.10;78.40;;;;;;4161551;28;20029;-85
2022/11/08 06:02:47;;;;;;;12.40;2.53;;;12.00;78.40;;;;;;4162380;28;20415;-85
2022/11/08 06:04:48;;;;;;;14.95;2.28;;;12.10;78.30;;;;;;4168042;28;20036;-84
2022/11/08 06:06:49;;;;;;;12.55;2.28;;;12.00;78.30;;;;;;4163194;28;20044;-84
2022/11/08 06:08:50;;;;;;;7.68;1.88;;;12.00;78.40;;;;;;4162186;28;20028;-85
2022/11/08 06:10:51;;;;;;;12.68;2.95;;;12.00;78.40;;;;;;4178230;28;20053;-85
2022/11/08 06:12:56;;;;;;;15.57;3.08;;;11.90;78.30;;;;;;4167066;28;20049;-84
2022/11/08 06:14:57;;;;;;;10.43;2.45;;;11.90;78.30;;;;;;4165019;28;20024;-85
2022/11/08 06:16:58;;;;;;;12.07;1.63;;;11.90;78.30;;;;;;4163389;28;20100;-85
2022/11/08 06:18:59;;;;;;;14.43;2.22;;;12.00;78.40;;;;;;4168354;28;20040;-84
2022/11/08 06:21:01;;;;;;;15.35;2.25;;;11.90;78.30;;;;;;4181893;28;20376;-86
2022/11/08 06:23:02;;;;;;;9.20;2.05;;;11.90;78.30;;;;;;4150604;28;20025;-85
2022/11/08 06:25:09;;;;;;;13.18;2.45;;;11.90;78.30;;;;;;4160844;28;20032;-85
2022/11/08 06:27:13;;;;;;;11.90;2.83;;;11.80;78.30;;;;;;4163729;28;20025;-84
2022/11/08 06:29:14;;;;;;;11.25;2.63;;;11.90;78.40;;;;;;4166823;28;20033;-84
2022/11/08 06:31:14;;;;;;;13.25;2.38;;;11.80;78.30;;;;;;4160698;28;20294;-85
2022/11/08 06:33:15;;;;;;;13.27;2.50;;;11.80;78.40;;;;;;4164280;28;20026;-85
2022/11/08 06:35:16;;;;;;;11.82;2.20;;;11.90;78.50;;;;;;4166782;28;20048;-87
2022/11/08 06:37:17;;;;;;;13.55;2.67;;;11.80;78.40;;;;;;4164678;28;20021;-85
2022/11/08 06:39:18;;;;;;;11.43;2.45;;;11.90;78.50;;;;;;4163589;28;20021;-84
2022/11/08 06:41:19;;;;;;;15.50;2.72;;;11.80;78.50;;;;;;4168745;28;20030;-85
2022/11/08 06:43:19;;;;;;;16.45;2.55;;;11.80;78.50;;;;;;4165561;28;20029;-85
2022/11/08 06:45:20;;;;;;;9.50;2.78;;;11.80;78.50;;;;;;4168748;28;20060;-86
2022/11/08 06:47:20;;;;;;;10.70;2.90;;;11.70;78.50;;;;;;4157195;28;20045;-85
2022/11/08 06:49:24;;;;;;;11.40;2.33;;;11.70;78.50;;;;;;4160210;28;20315;-85
2022/11/08 06:51:25;;;;;;;9.38;2.15;;;11.70;78.50;;;;;;4163903;28;20018;-85
2022/11/08 06:53:26;;;;;;;12.60;2.40;;;11.70;78.40;;;;;;4177017;28;20021;-85
2022/11/08 06:55:28;;;;;;;14.75;2.25;;;11.70;78.40;;;;;;4167748;28;20106;-86
2022/11/08 06:57:28;;;;;;;12.43;2.58;;;11.80;78.50;;;;;;4164593;28;20101;-85
2022/11/08 06:59:29;;;;;;;11.35;2.28;;;11.70;78.50;;;;;;4164000;28;20025;-86
2022/11/08 07:01:29;;;;;;;12.35;2.47;;;11.70;78.50;;;;;;4162378;28;20081;-85
2022/11/08 07:03:34;;;;;;;10.52;2.40;;;11.70;78.50;;;;;;4162242;28;20025;-85
2022/11/08 07:05:38;;;;;;;14.38;2.50;;;11.70;78.50;;;;;;4161556;28;20091;-86
2022/11/08 07:07:38;;;;;;;18.95;3.00;;;11.60;78.40;;;;;;4163968;28;20690;-84
2022/11/08 07:09:39;;;;;;;11.35;2.13;;;11.70;78.50;;;;;;4166499;28;20061;-84
2022/11/08 07:11:48;;;;;;;12.10;2.75;;;11.60;78.50;;;;;;4162374;28;20510;-84
2022/11/08 07:14:09;;;;;;;20.00;2.22;;;11.70;78.60;;;;;;4167639;28;20033;-84
2022/11/08 07:16:30;;;;;;;9.30;2.10;;;11.60;78.50;;;;;;4161774;28;20059;-85
2022/11/08 07:18:33;;;;;;;;;;;11.60;78.50;;;;;;4160150;28;20014;-84
2022/11/08 07:20:36;;;;;;;12.40;2.88;;;11.60;78.50;;;;;;4159048;28;19961;-85
2022/11/08 07:22:36;;;;;;;9.70;2.65;;;11.60;78.30;;;;;;4164221;28;20100;-84
2022/11/08 07:24:37;;;;;;;8.23;2.20;;;11.60;78.30;;;;;;4160652;28;20033;-85
2022/11/08 07:26:38;;;;;;;12.77;2.42;;;11.50;78.40;;;;;;4160850;28;20029;-84
2022/11/08 07:28:41;;;;;;;8.50;2.60;;;11.50;78.40;;;;;;4161763;28;20112;-85
2022/11/08 07:31:04;;;;;;;11.82;2.50;;;11.50;78.40;;;;;;4161445;28;20049;-84
2022/11/08 07:33:25;;;;;;;12.30;2.30;;;11.50;78.40;;;;;;4177373;28;20045;-85
2022/11/08 07:35:27;;;;;;;7.45;2.00;;;11.50;78.40;;;;;;4159158;28;20288;-85
2022/11/08 07:37:47;;;;;;;14.57;2.55;;;11.50;78.50;;;;;;4161658;28;20435;-84
2022/11/08 07:39:49;;;;;;;10.00;2.38;;;11.60;78.60;;;;;;4161028;28;20036;-85
2022/11/08 07:42:10;;;;;;;17.95;3.30;;;11.50;78.50;;;;;;4163788;28;20119;-85
2022/11/08 07:44:30;;;;;;;10.05;2.47;;;11.50;78.50;;;;;;4160062;28;20029;-84
2022/11/08 07:46:51;;;;;;;8.73;1.95;;;11.40;78.40;;;;;;4177820;28;20033;-85
2022/11/08 07:49:11;;;;;;;15.07;3.17;;;11.40;78.40;;;;;;4163010;28;20037;-83
2022/11/08 07:51:32;;;;;;;11.68;2.45;;;11.40;78.40;;;;;;4163617;28;20029;-84
2022/11/08 07:53:53;;;;;;;12.30;2.40;;;11.60;78.60;;;;;;4169140;28;20068;-85
2022/11/08 07:56:13;;;;;;;10.25;2.67;;;11.40;78.50;;;;;;4167147;28;20025;-85
2022/11/08 07:58:34;;;;;;;13.38;2.83;;;11.50;78.50;;;;;;4166499;28;20026;-85
2022/11/08 08:01:02;;;;;;;10.18;2.20;;;11.40;78.50;;;;;;4165622;28;20033;-84
2022/11/08 08:03:22;;;;;;;10.00;2.30;;;11.40;78.50;;;;;;4164846;28;20030;-85
2022/11/08 08:05:44;;;;;;;9.15;2.47;;;11.50;78.60;;;;;;4163736;28;20034;-84
2022/11/08 08:08:05;;;;;;;13.20;2.63;;;11.50;78.60;;;;;;4163776;28;20055;-85
2022/11/08 08:10:27;;;;;;;14.20;2.83;;;11.40;78.50;;;;;;4165125;28;20048;-85
2022/11/08 08:12:47;;;;;;;15.93;2.55;;;11.40;78.50;;;;;;4164489;28;20129;-85
2022/11/08 08:14:48;;;;;;;11.88;2.20;;;11.40;78.50;;;;;;4163740;28;20143;-85
2022/11/08 08:16:49;;;;;;;17.65;2.75;;;11.50;78.70;;;;;;4162358;28;20049;-85
2022/11/08 08:18:50;;;;;;;10.25;2.40;;;11.50;78.60;;;;;;4165592;28;20104;-85
2022/11/08 08:20:51;;;;;;;9.88;2.83;;;11.40;78.50;;;;;;4164950;28;20029;-85
2022/11/08 08:22:52;;;;;;;12.77;2.90;;;11.50;78.60;;;;;;4162115;28;20021;-84
2022/11/08 08:24:52;;;;;;;12.45;3.10;;;11.40;78.40;;;;;;4158326;28;20033;-85
2022/11/08 08:26:53;;;;;;;13.02;2.80;;;11.50;78.50;;;;;;4167008;28;20026;-85
2022/11/08 08:28:54;;;;;;;10.48;2.80;;;11.40;78.40;;;;;;4165456;28;20033;-85
2022/11/08 08:30:55;;;;;;;11.73;2.60;;;11.30;78.30;;;;;;4160623;28;20068;-84
2022/11/08 08:33:05;;;;;;;8.77;2.40;;;11.40;78.40;;;;;;4164763;28;20105;-85
2022/11/08 08:35:07;;;;;;;11.73;2.92;;;11.40;78.40;;;;;;4163583;28;20018;-85
2022/11/08 08:37:07;;;;;;;10.32;2.40;;;11.40;78.40;;;;;;4158202;28;20080;-85
2022/11/08 08:39:08;;;;;;;9.10;2.63;;;11.40;78.40;;;;;;4158556;28;20029;-85
2022/11/08 08:41:09;;;;;;;16.08;2.83;;;11.40;78.50;;;;;;4158208;28;20042;-84
2022/11/08 08:43:10;;;;;;;13.00;2.72;;;11.50;78.60;;;;;;4161481;28;20041;-85
2022/11/08 08:45:11;;;;;;;10.80;2.33;;;11.40;78.60;;;;;;4161954;28;20029;-85
2022/11/08 08:47:12;;;;;;;14.65;2.90;;;11.50;78.70;;;;;;4161335;28;20021;-85
2022/11/08 08:49:12;;;;;;;7.70;2.10;;;11.50;78.80;;;;;;4153946;28;20026;-85
2022/11/08 08:51:13;;;;;;;9.40;2.40;;;11.50;78.80;;;;;;4162009;28;20029;-84
2022/11/08 08:53:14;;;;;;;11.02;2.70;;;11.50;78.80;;;;;;4163172;28;20029;-85
2022/11/08 08:55:15;;;;;;;12.25;2.15;;;11.60;78.80;;;;;;4164542;28;20021;-85
2022/11/08 08:57:16;;;;;;;12.30;2.80;;;11.60;78.90;;;;;;4162263;28;20025;-85
2022/11/08 08:59:16;;;;;;;7.82;2.20;;;11.60;78.90;;;;;;4165092;28;20108;-84
2022/11/08 09:01:17;;;;;;;10.75;2.70;;;11.70;78.90;;;;;;4163421;28;20048;-84
2022/11/08 09:03:18;;;;;;;7.88;2.05;;;11.70;78.90;;;;;;4163556;28;20410;-84
2022/11/08 09:05:18;;;;;;;15.77;2.33;;;11.70;78.80;;;;;;4164737;28;20087;-85
2022/11/08 09:07:19;;;;;;;7.38;2.30;;;11.70;78.80;;;;;;4155816;28;20108;-84
2022/11/08 09:09:20;;;;;;;16.90;2.67;;;11.80;78.60;;;;;;4166191;28;20034;-85
2022/11/08 09:11:21;;;;;;;10.73;2.28;;;11.70;78.60;;;;;;4162883;28;20030;-85
2022/11/08 09:13:25;;;;;;;9.65;2.28;;;11.70;78.60;;;;;;4163560;28;20022;-85
2022/11/08 09:15:25;;;;;;;10.77;2.83;;;11.80;78.60;;;;;;4164838;28;20104;-85
2022/11/08 09:17:27;;;;;;;9.70;1.95;;;11.80;78.60;;;;;;4165268;28;20033;-85
2022/11/08 09:19:28;;;;;;;11.55;2.17;;;11.90;78.70;;;;;;4157803;28;20069;-85
2022/11/08 09:21:28;;;;;;;14.50;2.13;;;11.90;78.80;;;;;;4163702;28;20084;-84
2022/11/08 09:23:29;;;;;;;11.30;2.30;;;11.90;78.80;;;;;;4167928;28;20029;-84
2022/11/08 09:25:30;;;;;;;4.30;2.03;;;12.00;78.90;;;;;;4165932;28;21296;-85
2022/11/08 09:27:31;;;;;;;9.73;2.17;;;12.00;78.80;;;;;;4164442;28;20037;-85
2022/11/08 09:29:32;;;;;;;13.98;2.45;;;12.00;78.70;;;;;;4162662;28;20399;-85
2022/11/08 09:31:33;;;;;;;13.10;2.05;;;12.00;78.70;;;;;;4161856;28;20106;-85
2022/11/08 09:33:35;;;;;;;7.38;2.60;;;12.10;78.60;;;;;;4159546;28;20069;-84
2022/11/08 09:35:36;;;;;;;11.65;2.10;;;12.10;78.50;;;;;;4146637;28;20045;-85
2022/11/08 09:37:37;;;;;;;8.07;2.00;;;12.30;78.40;;;;;;4163501;28;20033;-85
2022/11/08 09:39:37;;;;;;;9.63;1.65;;;12.30;78.30;;;;;;4161310;28;20637;-85
2022/11/08 09:42:15;;;;;;;8.48;1.67;;;12.30;78.00;;;;;;4164387;28;20041;-85
2022/11/08 09:44:35;;;;;;;15.93;2.00;;;12.40;77.60;;;;;;4163237;28;20551;-84
2022/11/08 09:46:54;;;;;;;13.30;2.13;;;12.40;77.70;;;;;;4160901;28;20124;-85
2022/11/08 09:48:59;;;;;;;10.60;1.63;;;12.40;77.40;;;;;;4164040;28;20033;-85
2022/11/08 09:51:08;;;;;;;7.00;1.70;;;12.50;77.40;;;;;;4161500;28;20033;-85
2022/11/08 09:53:17;;;;;;;8.65;1.70;;;12.50;77.10;;;;;;4174942;28;20028;-84
2022/11/08 09:55:47;;;;;;;6.78;1.60;;;12.60;76.90;;;;;;4163461;28;20026;-85
2022/11/08 09:58:25;;;;;;;9.18;1.55;;;12.60;76.40;;;;;;4159796;28;20025;-84
2022/11/08 10:00:29;;;;;;;8.93;1.92;;;12.70;76.40;;;;;;4163849;28;20029;-85
2022/11/08 10:02:30;;;;;;;7.22;1.70;;;12.60;76.20;;;;;;4163526;28;20048;-84
2022/11/08 10:04:36;;;;;;;16.35;2.22;;;12.60;76.10;;;;;;4165256;28;20032;-85
2022/11/08 10:06:42;;;;;;;7.47;1.67;;;12.70;75.90;;;;;;4163831;28;20025;-85
2022/11/08 10:09:07;;;;;;;9.10;1.52;;;12.70;75.70;;;;;;4163778;28;20096;-85
2022/11/08 10:11:23;;;;;;;8.27;1.55;;;12.60;75.20;;;;;;4178245;28;20128;-84
2022/11/08 10:13:50;;;;;;;13.57;1.95;;;12.70;75.50;;;;;;4162006;28;20040;-85
2022/11/08 10:16:17;;;;;;;6.97;1.92;;;12.70;75.00;;;;;;4161477;28;20116;-85
2022/11/08 10:18:33;;;;;;;11.00;1.90;;;12.70;74.80;;;;;;4160644;28;20104;-84
2022/11/08 10:21:01;;;;;;;9.18;1.42;;;12.80;75.00;;;;;;4158714;28;20033;-84
2022/11/08 10:23:10;;;;;;;7.88;1.83;;;12.80;74.80;;;;;;4158127;28;20033;-84
2022/11/08 10:25:23;;;;;;;5.72;1.30;;;12.80;74.60;;;;;;4162559;28;20059;-85
2022/11/08 10:27:37;;;;;;;6.03;1.73;;;12.80;74.40;;;;;;4163495;28;20049;-85
2022/11/08 10:29:43;;;;;;;12.35;1.60;;;12.80;74.30;;;;;;4168312;28;20327;-84
2022/11/08 10:31:46;;;;;;;6.43;1.67;;;12.90;74.60;;;;;;4180257;28;20052;-85
2022/11/08 10:33:56;;;;;;;6.13;1.40;;;12.90;74.30;;;;;;4164412;28;20026;-85
2022/11/08 10:36:06;;;;;;;11.70;1.42;;;12.90;74.30;;;;;;4159921;28;20084;-85
2022/11/08 10:38:18;;;;;;;7.30;1.23;;;12.90;74.20;;;;;;4157438;28;20167;-85
2022/11/08 10:40:44;;;;;;;7.05;1.30;;;13.10;74.20;;;;;;4158068;28;20036;-83
2022/11/08 10:42:51;;;;;;;8.48;1.33;;;13.00;73.80;;;;;;4160571;28;20160;-85
2022/11/08 10:44:56;;;;;;;7.55;1.30;;;13.00;74.00;;;;;;4158321;28;20030;-84
2022/11/08 10:46:56;;;;;;;4.72;1.40;;;13.00;73.90;;;;;;4156041;28;20200;-85
2022/11/08 10:49:13;;;;;;;8.27;1.33;;;13.10;73.90;;;;;;4160503;28;20030;-85
2022/11/08 10:51:21;;;;;;;;;;;13.10;72.90;;;;;;4159861;28;20045;-85
2022/11/08 10:53:27;;;;;;;6.30;1.15;;;13.20;73.20;;;;;;4163329;28;20466;-85
2022/11/08 10:55:42;;;;;;;9.52;1.33;;;13.30;73.40;;;;;;4163633;28;20029;-84
2022/11/08 10:57:46;;;;;;;7.72;1.33;;;13.20;73.20;;;;;;4165322;28;20032;-85
2022/11/08 10:59:46;;;;;;;7.38;1.08;;;13.20;73.20;;;;;;4163770;28;20041;-85
2022/11/08 11:01:49;;;;;;;4.72;1.23;;;13.30;73.00;;;;;;4175312;28;20031;-85
2022/11/08 11:03:51;;;;;;;6.70;1.13;;;13.30;72.90;;;;;;4153835;28;20040;-85
2022/11/08 11:06:01;;;;;;;4.53;1.52;;;13.40;72.80;;;;;;4175613;28;20073;-84
2022/11/08 11:08:07;;;;;;;3.65;1.23;;;13.30;72.50;;;;;;4173889;28;20041;-84